sensor_id;sensor_type;location;lat;lon;timestamp;pressure;altitude;pressure_sealevel;temperature;humidity
8320;BME280;4197;42.130;24.746;2023-01-10T00:00:20;99166.06;;;3.53;100.00
8320;BME280;4197;42.130;24.746;2023-01-10T00:02:51;99171.72;;;3.51;100.00
8320;BME280;4197;42.130;24.746;2023-01-10T00:05:19;99165.13;;;3.57;100.00
8320;BME280;4197;42.130;24.746;2023-01-10T00:07:47;99154.72;;;3.56;100.00
8320;BME280;4197;42.130;24.746;2023-01-10T00:10:15;99143.78;;;3.35;100.00
8320;BME280;4197;42.130;24.746;2023-01-10T00:12:44;99158.31;;;3.34;100.00
8320;BME280;4197;42.130;24.746;2023-01-10T00:15:31;99145.56;;;3.66;100.00
8320;BME280;4197;42.130;24.746;2023-01-10T00:18:00;99126.75;;;3.22;100.00
8320;BME280;4197;42.130;24.746;2023-01-10T00:20:29;99135.41;;;3.10;100.00
8320;BME280;4197;42.130;24.746;2023-01-10T00:22:57;99131.63;;;3.11;100.00
8320;BME280;4197;42.130;24.746;2023-01-10T00:25:27;99136.81;;;3.08;100.00
8320;BME280;4197;42.130;24.746;2023-01-10T00:27:55;99115.28;;;3.48;100.00
8320;BME280;4197;42.130;24.746;2023-01-10T00:30:28;99110.06;;;3.34;100.00
8320;BME280;4197;42.130;24.746;2023-01-10T00:32:57;99109.56;;;3.23;100.00
8320;BME280;4197;42.130;24.746;2023-01-10T00:35:26;99101.53;;;3.15;100.00
8320;BME280;4197;42.130;24.746;2023-01-10T00:37:55;99092.56;;;3.10;100.00
8320;BME280;4197;42.130;24.746;2023-01-10T00:40:31;99114.13;;;3.14;100.00
8320;BME280;4197;42.130;24.746;2023-01-10T00:43:00;99094.47;;;3.36;100.00
8320;BME280;4197;42.130;24.746;2023-01-10T00:45:46;99092.22;;;3.21;100.00
8320;BME280;4197;42.130;24.746;2023-01-10T00:48:15;99096.97;;;3.24;100.00
8320;BME280;4197;42.130;24.746;2023-01-10T00:50:45;99103.91;;;3.42;100.00
8320;BME280;4197;42.130;24.746;2023-01-10T00:53:13;99099.97;;;3.40;100.00
8320;BME280;4197;42.130;24.746;2023-01-10T00:55:41;99102.34;;;3.41;100.00
8320;BME280;4197;42.130;24.746;2023-01-10T00:58:11;99093.69;;;3.44;100.00
8320;BME280;4197;42.130;24.746;2023-01-10T01:00:39;99101.88;;;3.30;100.00
8320;BME280;4197;42.130;24.746;2023-01-10T01:03:08;99093.03;;;3.65;100.00
8320;BME280;4197;42.130;24.746;2023-01-10T01:05:39;99095.88;;;3.51;100.00
8320;BME280;4197;42.130;24.746;2023-01-10T01:08:09;99086.56;;;3.66;100.00
8320;BME280;4197;42.130;24.746;2023-01-10T01:10:38;99093.03;;;3.73;100.00
8320;BME280;4197;42.130;24.746;2023-01-10T01:13:08;99087.81;;;3.94;100.00
8320;BME280;4197;42.130;24.746;2023-01-10T01:15:37;99084.19;;;3.82;100.00
8320;BME280;4197;42.130;24.746;2023-01-10T01:18:06;99088.63;;;3.77;100.00
8320;BME280;4197;42.130;24.746;2023-01-10T01:20:34;99086.13;;;3.64;100.00
8320;BME280;4197;42.130;24.746;2023-01-10T01:23:05;99085.47;;;3.84;100.00
8320;BME280;4197;42.130;24.746;2023-01-10T01:25:35;99081.66;;;3.85;100.00
8320;BME280;4197;42.130;24.746;2023-01-10T01:28:03;99084.53;;;3.80;100.00
8320;BME280;4197;42.130;24.746;2023-01-10T01:30:31;99084.97;;;3.82;100.00
8320;BME280;4197;42.130;24.746;2023-01-10T01:32:59;99089.28;;;3.74;100.00
8320;BME280;4197;42.130;24.746;2023-01-10T01:35:27;99087.03;;;3.68;100.00
8320;BME280;4197;42.130;24.746;2023-01-10T01:37:56;99076.78;;;3.78;100.00
8320;BME280;4197;42.130;24.746;2023-01-10T01:40:24;99070.94;;;3.85;100.00
8320;BME280;4197;42.130;24.746;2023-01-10T01:42:54;99059.75;;;3.83;100.00
8320;BME280;4197;42.130;24.746;2023-01-10T01:45:35;99067.63;;;3.79;100.00
8320;BME280;4197;42.130;24.746;2023-01-10T01:48:13;99029.94;;;3.67;100.00
8320;BME280;4197;42.130;24.746;2023-01-10T01:50:46;99038.63;;;3.73;100.00
8320;BME280;4197;42.130;24.746;2023-01-10T01:53:19;99030.72;;;3.68;100.00
8320;BME280;4197;42.130;24.746;2023-01-10T01:55:49;99034.81;;;3.74;100.00
8320;BME280;4197;42.130;24.746;2023-01-10T01:58:24;99041.22;;;3.99;100.00
8320;BME280;4197;42.130;24.746;2023-01-10T02:00:55;99035.25;;;3.93;100.00
8320;BME280;4197;42.130;24.746;2023-01-10T02:03:25;99027.09;;;3.81;100.00
8320;BME280;4197;42.130;24.746;2023-01-10T02:05:54;99018.56;;;3.79;100.00
8320;BME280;4197;42.130;24.746;2023-01-10T02:08:23;99015.13;;;3.70;100.00
8320;BME280;4197;42.130;24.746;2023-01-10T02:10:56;99006.31;;;3.52;100.00
8320;BME280;4197;42.130;24.746;2023-01-10T02:13:28;98999.69;;;3.58;100.00
8320;BME280;4197;42.130;24.746;2023-01-10T02:15:57;98989.75;;;3.58;100.00
8320;BME280;4197;42.130;24.746;2023-01-10T02:18:26;98997.88;;;3.79;100.00
8320;BME280;4197;42.130;24.746;2023-01-10T02:21:17;98996.03;;;3.80;100.00
8320;BME280;4197;42.130;24.746;2023-01-10T02:24:22;98995.06;;;3.76;100.00
8320;BME280;4197;42.130;24.746;2023-01-10T02:27:08;98970.97;;;3.67;100.00
8320;BME280;4197;42.130;24.746;2023-01-10T02:30:18;98958.16;;;3.73;100.00
8320;BME280;4197;42.130;24.746;2023-01-10T02:32:58;98927.91;;;3.64;100.00
8320;BME280;4197;42.130;24.746;2023-01-10T02:38:42;98957.25;;;3.69;100.00
8320;BME280;4197;42.130;24.746;2023-01-10T02:41:20;98965.09;;;3.83;100.00
8320;BME280;4197;42.130;24.746;2023-01-10T02:43:55;98961.38;;;3.57;100.00
8320;BME280;4197;42.130;24.746;2023-01-10T02:46:27;98967.34;;;3.72;100.00
8320;BME280;4197;42.130;24.746;2023-01-10T02:48:57;98971.75;;;3.68;100.00
8320;BME280;4197;42.130;24.746;2023-01-10T02:51:27;98962.78;;;3.64;100.00
8320;BME280;4197;42.130;24.746;2023-01-10T02:53:58;98964.50;;;3.60;100.00
8320;BME280;4197;42.130;24.746;2023-01-10T02:56:47;98962.66;;;3.34;100.00
8320;BME280;4197;42.130;24.746;2023-01-10T02:59:38;98957.78;;;3.36;100.00
8320;BME280;4197;42.130;24.746;2023-01-10T03:02:15;98960.44;;;3.53;100.00
8320;BME280;4197;42.130;24.746;2023-01-10T03:04:51;98954.91;;;3.50;100.00
8320;BME280;4197;42.130;24.746;2023-01-10T03:07:27;98969.13;;;3.42;100.00
8320;BME280;4197;42.130;24.746;2023-01-10T03:10:04;98960.31;;;3.41;100.00
8320;BME280;4197;42.130;24.746;2023-01-10T03:12:41;98959.81;;;3.39;100.00
8320;BME280;4197;42.130;24.746;2023-01-10T03:15:17;98962.34;;;3.44;100.00
8320;BME280;4197;42.130;24.746;2023-01-10T03:17:50;98962.66;;;3.43;100.00
8320;BME280;4197;42.130;24.746;2023-01-10T03:20:23;98945.94;;;3.46;100.00
8320;BME280;4197;42.130;24.746;2023-01-10T03:22:54;98933.94;;;3.43;100.00
8320;BME280;4197;42.130;24.746;2023-01-10T03:25:25;98932.84;;;3.44;100.00
8320;BME280;4197;42.130;24.746;2023-01-10T03:28:03;98939.69;;;3.71;100.00
8320;BME280;4197;42.130;24.746;2023-01-10T03:30:40;98951.69;;;3.83;100.00
8320;BME280;4197;42.130;24.746;2023-01-10T03:33:13;98937.81;;;3.80;100.00
8320;BME280;4197;42.130;24.746;2023-01-10T03:35:51;98932.31;;;3.77;100.00
8320;BME280;4197;42.130;24.746;2023-01-10T03:38:28;98916.06;;;3.65;100.00
8320;BME280;4197;42.130;24.746;2023-01-10T03:41:08;98903.31;;;3.62;100.00
8320;BME280;4197;42.130;24.746;2023-01-10T03:43:44;98920.53;;;3.61;100.00
8320;BME280;4197;42.130;24.746;2023-01-10T03:46:35;98911.19;;;3.67;100.00
8320;BME280;4197;42.130;24.746;2023-01-10T03:49:05;98916.81;;;3.74;100.00
8320;BME280;4197;42.130;24.746;2023-01-10T03:51:38;98920.78;;;3.68;100.00
8320;BME280;4197;42.130;24.746;2023-01-10T03:54:06;98903.63;;;3.60;100.00
8320;BME280;4197;42.130;24.746;2023-01-10T03:56:45;98891.03;;;3.52;100.00
8320;BME280;4197;42.130;24.746;2023-01-10T03:59:13;98886.94;;;3.54;100.00
8320;BME280;4197;42.130;24.746;2023-01-10T04:01:42;98878.00;;;3.42;100.00
8320;BME280;4197;42.130;24.746;2023-01-10T04:04:10;98854.28;;;3.61;100.00
8320;BME280;4197;42.130;24.746;2023-01-10T04:06:40;98845.84;;;3.42;100.00
8320;BME280;4197;42.130;24.746;2023-01-10T04:09:08;98854.72;;;3.25;100.00
8320;BME280;4197;42.130;24.746;2023-01-10T04:11:37;98856.81;;;3.10;100.00
8320;BME280;4197;42.130;24.746;2023-01-10T04:14:05;98860.41;;;3.15;100.00
8320;BME280;4197;42.130;24.746;2023-01-10T04:16:34;98870.00;;;3.24;100.00
8320;BME280;4197;42.130;24.746;2023-01-10T04:19:02;98875.22;;;3.68;100.00
8320;BME280;4197;42.130;24.746;2023-01-10T04:21:30;98874.94;;;3.90;100.00
8320;BME280;4197;42.130;24.746;2023-01-10T04:24:00;98877.84;;;3.76;100.00
8320;BME280;4197;42.130;24.746;2023-01-10T04:26:28;98888.09;;;3.83;100.00
8320;BME280;4197;42.130;24.746;2023-01-10T04:28:56;98891.00;;;3.69;100.00
8320;BME280;4197;42.130;24.746;2023-01-10T04:31:24;98869.56;;;3.61;100.00
8320;BME280;4197;42.130;24.746;2023-01-10T04:33:52;98860.16;;;3.84;100.00
8320;BME280;4197;42.130;24.746;2023-01-10T04:36:21;98860.50;;;3.74;100.00
8320;BME280;4197;42.130;24.746;2023-01-10T04:38:49;98866.25;;;3.64;100.00
8320;BME280;4197;42.130;24.746;2023-01-10T04:41:18;98860.19;;;3.75;100.00
8320;BME280;4197;42.130;24.746;2023-01-10T04:43:46;98861.47;;;3.78;100.00
8320;BME280;4197;42.130;24.746;2023-01-10T04:46:15;98872.91;;;3.87;100.00
8320;BME280;4197;42.130;24.746;2023-01-10T04:48:43;98875.25;;;3.97;100.00
8320;BME280;4197;42.130;24.746;2023-01-10T04:51:12;98869.88;;;3.97;100.00
8320;BME280;4197;42.130;24.746;2023-01-10T04:53:40;98872.91;;;3.87;100.00
8320;BME280;4197;42.130;24.746;2023-01-10T04:56:09;98860.16;;;3.84;100.00
8320;BME280;4197;42.130;24.746;2023-01-10T04:58:45;98868.75;;;3.98;100.00
8320;BME280;4197;42.130;24.746;2023-01-10T05:01:15;98856.19;;;3.90;100.00
8320;BME280;4197;42.130;24.746;2023-01-10T05:03:46;98852.75;;;3.81;100.00
8320;BME280;4197;42.130;24.746;2023-01-10T05:06:14;98847.44;;;3.72;100.00
8320;BME280;4197;42.130;24.746;2023-01-10T05:08:43;98843.50;;;3.70;100.00
8320;BME280;4197;42.130;24.746;2023-01-10T05:11:11;98845.59;;;3.64;100.00
8320;BME280;4197;42.130;24.746;2023-01-10T05:13:40;98850.25;;;3.76;100.00
8320;BME280;4197;42.130;24.746;2023-01-10T05:16:10;98843.16;;;3.80;100.00
8320;BME280;4197;42.130;24.746;2023-01-10T05:18:38;98840.03;;;3.69;100.00
8320;BME280;4197;42.130;24.746;2023-01-10T05:21:08;98829.75;;;3.71;100.00
8320;BME280;4197;42.130;24.746;2023-01-10T05:23:37;98829.38;;;3.61;100.00
8320;BME280;4197;42.130;24.746;2023-01-10T05:26:06;98841.28;;;3.72;100.00
8320;BME280;4197;42.130;24.746;2023-01-10T05:28:35;98834.38;;;3.62;100.00
8320;BME280;4197;42.130;24.746;2023-01-10T05:31:04;98829.31;;;3.69;100.00
8320;BME280;4197;42.130;24.746;2023-01-10T05:33:34;98818.03;;;3.55;100.00
8320;BME280;4197;42.130;24.746;2023-01-10T05:36:04;98815.34;;;3.55;100.00
8320;BME280;4197;42.130;24.746;2023-01-10T05:38:33;98821.03;;;3.53;100.00
8320;BME280;4197;42.130;24.746;2023-01-10T05:41:01;98798.50;;;3.46;100.00
8320;BME280;4197;42.130;24.746;2023-01-10T05:43:29;98797.44;;;3.38;100.00
8320;BME280;4197;42.130;24.746;2023-01-10T05:45:58;98808.91;;;3.47;100.00
8320;BME280;4197;42.130;24.746;2023-01-10T05:48:26;98817.69;;;3.56;100.00
8320;BME280;4197;42.130;24.746;2023-01-10T05:50:56;98806.09;;;3.73;100.00
8320;BME280;4197;42.130;24.746;2023-01-10T05:53:25;98807.09;;;3.60;100.00
8320;BME280;4197;42.130;24.746;2023-01-10T05:55:55;98793.44;;;3.53;100.00
8320;BME280;4197;42.130;24.746;2023-01-10T05:58:27;98805.59;;;3.50;100.00
8320;BME280;4197;42.130;24.746;2023-01-10T06:00:56;98810.13;;;3.58;100.00
8320;BME280;4197;42.130;24.746;2023-01-10T06:03:25;98835.47;;;3.70;100.00
8320;BME280;4197;42.130;24.746;2023-01-10T06:05:53;98827.31;;;3.87;100.00
8320;BME280;4197;42.130;24.746;2023-01-10T06:08:23;98822.53;;;3.72;100.00
8320;BME280;4197;42.130;24.746;2023-01-10T06:10:51;98823.56;;;3.79;100.00
8320;BME280;4197;42.130;24.746;2023-01-10T06:13:20;98822.72;;;3.96;100.00
8320;BME280;4197;42.130;24.746;2023-01-10T06:15:50;98822.72;;;3.96;100.00
8320;BME280;4197;42.130;24.746;2023-01-10T06:18:18;98830.34;;;3.86;100.00
8320;BME280;4197;42.130;24.746;2023-01-10T06:20:46;98828.44;;;3.86;100.00
8320;BME280;4197;42.130;24.746;2023-01-10T06:23:15;98828.22;;;4.00;100.00
8320;BME280;4197;42.130;24.746;2023-01-10T06:25:45;98822.25;;;3.94;100.00
8320;BME280;4197;42.130;24.746;2023-01-10T06:28:13;98832.50;;;3.92;100.00
8320;BME280;4197;42.130;24.746;2023-01-10T06:30:42;98836.31;;;3.91;100.00
8320;BME280;4197;42.130;24.746;2023-01-10T06:33:11;98825.84;;;3.98;100.00
8320;BME280;4197;42.130;24.746;2023-01-10T06:35:39;98817.84;;;3.90;100.00
8320;BME280;4197;42.130;24.746;2023-01-10T06:38:08;98812.84;;;3.79;100.00
8320;BME280;4197;42.130;24.746;2023-01-10T06:40:36;98819.16;;;3.84;100.00
8320;BME280;4197;42.130;24.746;2023-01-10T06:43:06;98808.94;;;3.77;100.00
8320;BME280;4197;42.130;24.746;2023-01-10T06:45:34;98813.38;;;3.73;100.00
8320;BME280;4197;42.130;24.746;2023-01-10T06:48:03;98815.13;;;3.69;100.00
8320;BME280;4197;42.130;24.746;2023-01-10T06:50:31;98821.31;;;3.61;100.00
8320;BME280;4197;42.130;24.746;2023-01-10T06:53:02;98814.53;;;3.63;100.00
8320;BME280;4197;42.130;24.746;2023-01-10T06:55:30;98811.63;;;3.68;100.00
8320;BME280;4197;42.130;24.746;2023-01-10T06:58:00;98816.09;;;3.64;100.00
8320;BME280;4197;42.130;24.746;2023-01-10T07:00:30;98818.63;;;3.61;100.00
8320;BME280;4197;42.130;24.746;2023-01-10T07:03:00;98811.59;;;3.47;100.00
8320;BME280;4197;42.130;24.746;2023-01-10T07:05:28;98804.28;;;3.56;100.00
8320;BME280;4197;42.130;24.746;2023-01-10T07:07:57;98802.56;;;3.61;100.00
8320;BME280;4197;42.130;24.746;2023-01-10T07:10:27;98810.59;;;3.61;100.00
8320;BME280;4197;42.130;24.746;2023-01-10T07:12:55;98800.53;;;3.57;100.00
8320;BME280;4197;42.130;24.746;2023-01-10T07:15:24;98791.09;;;3.43;100.00
8320;BME280;4197;42.130;24.746;2023-01-10T07:17:55;98778.91;;;3.54;100.00
8320;BME280;4197;42.130;24.746;2023-01-10T07:20:24;98782.19;;;3.60;100.00
8320;BME280;4197;42.130;24.746;2023-01-10T07:22:53;98790.88;;;3.56;100.00
8320;BME280;4197;42.130;24.746;2023-01-10T07:25:22;98781.75;;;3.57;100.00
8320;BME280;4197;42.130;24.746;2023-01-10T07:27:50;98782.19;;;3.60;100.00
8320;BME280;4197;42.130;24.746;2023-01-10T07:30:21;98770.03;;;3.62;100.00
8320;BME280;4197;42.130;24.746;2023-01-10T07:32:56;98766.13;;;3.60;100.00
8320;BME280;4197;42.130;24.746;2023-01-10T07:35:25;98765.34;;;3.59;100.00
8320;BME280;4197;42.130;24.746;2023-01-10T07:37:56;98757.63;;;3.57;100.00
8320;BME280;4197;42.130;24.746;2023-01-10T07:40:25;98754.38;;;3.43;100.00
8320;BME280;4197;42.130;24.746;2023-01-10T07:42:55;98744.41;;;3.52;100.00
8320;BME280;4197;42.130;24.746;2023-01-10T07:45:24;98748.59;;;3.62;100.00
8320;BME280;4197;42.130;24.746;2023-01-10T07:47:56;98751.75;;;3.64;100.00
8320;BME280;4197;42.130;24.746;2023-01-10T07:50:25;98745.38;;;3.48;100.00
8320;BME280;4197;42.130;24.746;2023-01-10T07:52:54;98747.69;;;3.58;100.00
8320;BME280;4197;42.130;24.746;2023-01-10T07:55:22;98742.50;;;3.53;100.00
8320;BME280;4197;42.130;24.746;2023-01-10T07:57:50;98731.91;;;3.56;100.00
8320;BME280;4197;42.130;24.746;2023-01-10T08:00:18;98738.56;;;3.50;100.00
8320;BME280;4197;42.130;24.746;2023-01-10T08:02:51;98727.16;;;3.62;100.00
8320;BME280;4197;42.130;24.746;2023-01-10T08:05:21;98715.00;;;3.65;100.00
8320;BME280;4197;42.130;24.746;2023-01-10T08:07:49;98710.28;;;3.62;100.00
8320;BME280;4197;42.130;24.746;2023-01-10T08:10:18;98708.13;;;3.55;100.00
8320;BME280;4197;42.130;24.746;2023-01-10T08:12:48;98705.28;;;3.51;100.00
8320;BME280;4197;42.130;24.746;2023-01-10T08:15:16;98717.59;;;3.52;100.00
8320;BME280;4197;42.130;24.746;2023-01-10T08:17:45;98706.06;;;3.52;100.00
8320;BME280;4197;42.130;24.746;2023-01-10T08:20:13;98704.63;;;3.54;100.00
8320;BME280;4197;42.130;24.746;2023-01-10T08:22:42;98726.72;;;3.51;100.00
8320;BME280;4197;42.130;24.746;2023-01-10T08:25:11;98724.00;;;3.60;100.00
8320;BME280;4197;42.130;24.746;2023-01-10T08:27:39;98726.25;;;3.58;100.00
8320;BME280;4197;42.130;24.746;2023-01-10T08:30:09;98719.16;;;3.53;100.00
8320;BME280;4197;42.130;24.746;2023-01-10T08:32:37;98712.25;;;3.52;100.00
8320;BME280;4197;42.130;24.746;2023-01-10T08:35:06;98711.41;;;3.61;100.00
8320;BME280;4197;42.130;24.746;2023-01-10T08:37:34;98699.69;;;3.65;100.00
8320;BME280;4197;42.130;24.746;2023-01-10T08:40:05;98685.13;;;3.75;100.00
8320;BME280;4197;42.130;24.746;2023-01-10T08:42:33;98693.00;;;3.71;100.00
8320;BME280;4197;42.130;24.746;2023-01-10T08:45:02;98681.69;;;3.66;100.00
8320;BME280;4197;42.130;24.746;2023-01-10T08:47:30;98692.22;;;3.71;100.00
8320;BME280;4197;42.130;24.746;2023-01-10T08:50:01;98685.78;;;3.72;100.00
8320;BME280;4197;42.130;24.746;2023-01-10T08:52:31;98677.19;;;3.78;100.00
8320;BME280;4197;42.130;24.746;2023-01-10T08:54:59;98677.06;;;3.75;100.00
8320;BME280;4197;42.130;24.746;2023-01-10T08:57:29;98681.13;;;3.81;100.00
8320;BME280;4197;42.130;24.746;2023-01-10T08:59:58;98678.91;;;3.83;100.00
8320;BME280;4197;42.130;24.746;2023-01-10T09:02:27;98681.25;;;3.85;100.00
8320;BME280;4197;42.130;24.746;2023-01-10T09:04:55;98675.09;;;3.84;100.00
8320;BME280;4197;42.130;24.746;2023-01-10T09:07:23;98670.41;;;3.81;100.00
8320;BME280;4197;42.130;24.746;2023-01-10T09:09:52;98660.91;;;3.84;100.00
8320;BME280;4197;42.130;24.746;2023-01-10T09:12:20;98650.38;;;3.78;100.00
8320;BME280;4197;42.130;24.746;2023-01-10T09:15:08;98644.09;;;3.95;100.00
8320;BME280;4197;42.130;24.746;2023-01-10T09:17:37;98642.53;;;3.94;100.00
8320;BME280;4197;42.130;24.746;2023-01-10T09:20:06;98642.06;;;3.92;100.00
8320;BME280;4197;42.130;24.746;2023-01-10T09:22:35;98642.19;;;3.96;100.00
8320;BME280;4197;42.130;24.746;2023-01-10T09:25:05;98622.63;;;3.95;100.00
8320;BME280;4197;42.130;24.746;2023-01-10T09:27:33;98625.00;;;3.97;100.00
8320;BME280;4197;42.130;24.746;2023-01-10T09:30:01;98608.34;;;4.03;100.00
8320;BME280;4197;42.130;24.746;2023-01-10T09:32:32;98618.75;;;4.05;100.00
8320;BME280;4197;42.130;24.746;2023-01-10T09:35:00;98612.16;;;4.02;100.00
8320;BME280;4197;42.130;24.746;2023-01-10T09:37:29;98605.56;;;4.00;100.00
8320;BME280;4197;42.130;24.746;2023-01-10T09:39:59;98596.50;;;4.05;100.00
8320;BME280;4197;42.130;24.746;2023-01-10T09:42:42;98578.53;;;4.05;100.00
8320;BME280;4197;42.130;24.746;2023-01-10T09:45:19;98568.88;;;4.04;100.00
8320;BME280;4197;42.130;24.746;2023-01-10T09:47:54;98565.41;;;4.03;100.00
8320;BME280;4197;42.130;24.746;2023-01-10T09:50:31;98563.97;;;4.06;100.00
8320;BME280;4197;42.130;24.746;2023-01-10T09:53:08;98570.78;;;4.03;100.00
8320;BME280;4197;42.130;24.746;2023-01-10T09:55:38;98552.47;;;4.06;100.00
8320;BME280;4197;42.130;24.746;2023-01-10T09:58:10;98552.56;;;4.09;100.00
8320;BME280;4197;42.130;24.746;2023-01-10T10:00:42;98550.25;;;4.08;100.00
8320;BME280;4197;42.130;24.746;2023-01-10T10:03:20;98544.78;;;4.16;100.00
8320;BME280;4197;42.130;24.746;2023-01-10T10:05:49;98551.50;;;4.22;100.00
8320;BME280;4197;42.130;24.746;2023-01-10T10:08:24;98546.13;;;4.22;100.00
8320;BME280;4197;42.130;24.746;2023-01-10T10:11:01;98550.72;;;4.22;100.00
8320;BME280;4197;42.130;24.746;2023-01-10T10:13:45;98539.97;;;4.22;100.00
8320;BME280;4197;42.130;24.746;2023-01-10T10:16:26;98537.97;;;4.31;100.00
8320;BME280;4197;42.130;24.746;2023-01-10T10:19:04;98535.63;;;4.30;100.00
8320;BME280;4197;42.130;24.746;2023-01-10T10:21:44;98533.16;;;4.24;100.00
8320;BME280;4197;42.130;24.746;2023-01-10T10:24:24;98515.38;;;4.20;100.00
8320;BME280;4197;42.130;24.746;2023-01-10T10:26:59;98499.06;;;4.25;100.00
8320;BME280;4197;42.130;24.746;2023-01-10T10:29:49;98497.38;;;4.33;100.00
8320;BME280;4197;42.130;24.746;2023-01-10T10:32:39;98495.03;;;4.31;100.00
8320;BME280;4197;42.130;24.746;2023-01-10T10:35:15;98490.34;;;4.28;100.00
8320;BME280;4197;42.130;24.746;2023-01-10T10:37:50;98483.41;;;4.27;100.00
8320;BME280;4197;42.130;24.746;2023-01-10T10:40:20;98478.38;;;4.25;100.00
8320;BME280;4197;42.130;24.746;2023-01-10T10:42:53;98463.16;;;4.17;100.00
8320;BME280;4197;42.130;24.746;2023-01-10T10:45:28;98458.03;;;4.24;100.00
8320;BME280;4197;42.130;24.746;2023-01-10T10:48:02;98439.56;;;4.23;100.00
8320;BME280;4197;42.130;24.746;2023-01-10T10:50:49;98440.34;;;4.11;100.00
8320;BME280;4197;42.130;24.746;2023-01-10T10:53:18;98437.56;;;4.20;100.00
8320;BME280;4197;42.130;24.746;2023-01-10T10:55:47;98442.25;;;4.23;100.00
8320;BME280;4197;42.130;24.746;2023-01-10T10:58:16;98441.78;;;4.21;100.00
8320;BME280;4197;42.130;24.746;2023-01-10T11:00:45;98444.59;;;4.12;100.00
8320;BME280;4197;42.130;24.746;2023-01-10T11:03:23;98450.63;;;4.09;100.00
8320;BME280;4197;42.130;24.746;2023-01-10T11:05:54;98447.84;;;4.18;100.00
8320;BME280;4197;42.130;24.746;2023-01-10T11:08:24;98440.47;;;4.15;100.00
8320;BME280;4197;42.130;24.746;2023-01-10T11:10:54;98427.50;;;4.17;100.00
8320;BME280;4197;42.130;24.746;2023-01-10T11:13:30;98405.25;;;4.04;100.00
8320;BME280;4197;42.130;24.746;2023-01-10T11:16:04;98414.31;;;4.12;100.00
8320;BME280;4197;42.130;24.746;2023-01-10T11:18:33;98407.47;;;4.14;100.00
8320;BME280;4197;42.130;24.746;2023-01-10T11:21:08;98398.09;;;4.08;100.00
8320;BME280;4197;42.130;24.746;2023-01-10T11:23:48;98386.81;;;4.02;100.00
8320;BME280;4197;42.130;24.746;2023-01-10T11:26:25;98371.38;;;3.87;100.00
8320;BME280;4197;42.130;24.746;2023-01-10T11:29:05;98383.56;;;3.97;100.00
8320;BME280;4197;42.130;24.746;2023-01-10T11:31:35;98393.97;;;4.11;100.00
8320;BME280;4197;42.130;24.746;2023-01-10T11:34:06;98394.66;;;4.08;100.00
8320;BME280;4197;42.130;24.746;2023-01-10T11:36:53;98403.66;;;4.15;100.00
8320;BME280;4197;42.130;24.746;2023-01-10T11:39:22;98393.38;;;4.17;100.00
8320;BME280;4197;42.130;24.746;2023-01-10T11:41:50;98392.25;;;4.18;100.00
8320;BME280;4197;42.130;24.746;2023-01-10T11:44:23;98382.34;;;4.19;100.00
8320;BME280;4197;42.130;24.746;2023-01-10T11:46:54;98372.94;;;4.13;100.00
8320;BME280;4197;42.130;24.746;2023-01-10T11:49:30;98375.88;;;4.08;100.00
8320;BME280;4197;42.130;24.746;2023-01-10T11:52:03;98368.91;;;4.19;100.00
8320;BME280;4197;42.130;24.746;2023-01-10T11:54:32;98379.88;;;4.14;100.00
8320;BME280;4197;42.130;24.746;2023-01-10T11:57:03;98367.47;;;3.97;100.00
8320;BME280;4197;42.130;24.746;2023-01-10T11:59:34;98375.84;;;3.95;100.00
8320;BME280;4197;42.130;24.746;2023-01-10T12:02:12;98372.03;;;4.21;100.00
8320;BME280;4197;42.130;24.746;2023-01-10T12:04:43;98361.19;;;4.17;100.00
8320;BME280;4197;42.130;24.746;2023-01-10T12:07:14;98365.56;;;4.22;100.00
8320;BME280;4197;42.130;24.746;2023-01-10T12:09:53;98365.44;;;4.18;100.00
8320;BME280;4197;42.130;24.746;2023-01-10T12:12:23;98376.63;;;4.33;100.00
8320;BME280;4197;42.130;24.746;2023-01-10T12:14:53;98377.34;;;4.45;100.00
8320;BME280;4197;42.130;24.746;2023-01-10T12:17:24;98367.75;;;4.44;100.00
8320;BME280;4197;42.130;24.746;2023-01-10T12:19:54;98366.59;;;4.58;100.00
8320;BME280;4197;42.130;24.746;2023-01-10T12:22:30;98379.34;;;4.48;100.00
8320;BME280;4197;42.130;24.746;2023-01-10T12:25:02;98395.91;;;4.63;100.00
8320;BME280;4197;42.130;24.746;2023-01-10T12:27:33;98400.91;;;4.64;100.00
8320;BME280;4197;42.130;24.746;2023-01-10T12:30:04;98409.09;;;4.56;100.00
8320;BME280;4197;42.130;24.746;2023-01-10T12:32:38;98403.97;;;4.63;100.00
8320;BME280;4197;42.130;24.746;2023-01-10T12:35:13;98405.75;;;4.59;100.00
8320;BME280;4197;42.130;24.746;2023-01-10T12:37:47;98403.97;;;4.63;100.00
8320;BME280;4197;42.130;24.746;2023-01-10T12:40:24;98405.75;;;4.59;100.00
8320;BME280;4197;42.130;24.746;2023-01-10T12:43:00;98400.81;;;4.61;100.00
8320;BME280;4197;42.130;24.746;2023-01-10T12:45:52;98392.19;;;4.67;100.00
8320;BME280;4197;42.130;24.746;2023-01-10T12:48:28;98369.97;;;4.55;100.00
8320;BME280;4197;42.130;24.746;2023-01-10T12:51:03;98347.59;;;4.51;100.00
8320;BME280;4197;42.130;24.746;2023-01-10T12:53:38;98349.63;;;4.41;100.00
8320;BME280;4197;42.130;24.746;2023-01-10T12:56:12;98349.41;;;4.46;100.00
8320;BME280;4197;42.130;24.746;2023-01-10T12:58:43;98344.13;;;4.50;100.00
8320;BME280;4197;42.130;24.746;2023-01-10T13:01:15;98345.84;;;4.70;100.00
8320;BME280;4197;42.130;24.746;2023-01-10T13:03:49;98352.66;;;4.80;100.00
8320;BME280;4197;42.130;24.746;2023-01-10T13:06:24;98345.13;;;4.86;100.00
8320;BME280;4197;42.130;24.746;2023-01-10T13:08:58;98362.41;;;4.73;100.00
8320;BME280;4197;42.130;24.746;2023-01-10T13:11:34;98394.88;;;4.96;100.00
8320;BME280;4197;42.130;24.746;2023-01-10T13:14:04;98388.00;;;4.82;100.00
8320;BME280;4197;42.130;24.746;2023-01-10T13:16:44;98378.72;;;5.08;100.00
8320;BME280;4197;42.130;24.746;2023-01-10T13:19:26;98388.50;;;5.00;100.00
8320;BME280;4197;42.130;24.746;2023-01-10T13:22:19;98378.28;;;5.06;100.00
8320;BME280;4197;42.130;24.746;2023-01-10T13:24:57;98358.09;;;5.12;100.00
8320;BME280;4197;42.130;24.746;2023-01-10T13:27:29;98352.84;;;5.31;100.00
8320;BME280;4197;42.130;24.746;2023-01-10T13:29:58;98345.41;;;5.41;100.00
8320;BME280;4197;42.130;24.746;2023-01-10T13:32:28;98330.81;;;5.42;100.00
8320;BME280;4197;42.130;24.746;2023-01-10T13:35:11;98323.19;;;5.44;100.00
8320;BME280;4197;42.130;24.746;2023-01-10T13:37:42;98324.47;;;5.34;100.00